Time;durP1;ratioP1;P1;durP2;ratioP2;P2;SDS_P1;SDS_P2;PMS_P1;PMS_P2;Temp;Humidity;BMP_temperature;BMP_pressure;BME280_temperature;BME280_humidity;BME280_pressure;Samples;Min_cycle;Max_cycle;Signal;HPM_P1;HPM_P2
2024/04/16 00:00:09;;;;;;;10.37;2.03;;;7.10;99.90;;;7.78;100.00;97155.28;5497140;26;20479;-74
2024/04/16 00:02:37;;;;;;;7.90;2.03;;;7.10;99.90;;;7.70;100.00;97157.25;5494808;26;20469;-73
2024/04/16 00:05:07;;;;;;;9.03;2.10;;;7.00;99.90;;;7.70;100.00;97155.47;5496914;26;20474;-73
2024/04/16 00:07:35;;;;;;;8.07;2.00;;;7.10;99.90;;;7.75;100.00;97160.06;5497673;26;20473;-73
2024/04/16 00:10:06;;;;;;;20.03;2.10;;;7.10;99.90;;;7.72;100.00;97157.88;5495024;25;20481;-73
2024/04/16 00:12:36;;;;;;;5.93;1.90;;;7.10;99.90;;;7.69;100.00;97147.84;5495368;26;20578;-73
2024/04/16 00:15:07;;;;;;;4.07;1.70;;;7.10;99.90;;;7.73;100.00;97154.28;5491597;26;20550;-73
2024/04/16 00:17:35;;;;;;;8.87;2.07;;;7.00;99.90;;;7.67;100.00;97142.81;5493067;26;20477;-73
2024/04/16 00:20:06;;;;;;;11.77;1.87;;;7.00;99.90;;;7.75;100.00;97134.88;5495949;26;20586;-74
2024/04/16 00:22:34;;;;;;;4.30;1.73;;;7.10;99.90;;;7.71;100.00;97143.25;5491143;26;20478;-73
2024/04/16 00:25:05;;;;;;;10.53;2.07;;;7.10;99.90;;;7.71;100.00;97136.25;5491382;26;21073;-73
2024/04/16 00:27:32;;;;;;;9.47;2.00;;;7.10;99.90;;;7.70;100.00;97139.03;5492225;26;20594;-73
2024/04/16 00:30:07;;;;;;;15.20;2.43;;;7.10;99.90;;;7.71;100.00;97130.22;5493253;26;20484;-73
2024/04/16 00:32:34;;;;;;;8.67;2.30;;;7.10;99.90;;;7.70;100.00;97136.44;5491548;26;20867;-73
2024/04/16 00:35:05;;;;;;;10.67;1.90;;;7.00;99.90;;;7.67;100.00;97150.63;5490925;25;21054;-73
2024/04/16 00:37:33;;;;;;;16.23;2.40;;;7.00;99.90;;;7.60;100.00;97168.78;5495369;26;20481;-73
2024/04/16 00:40:03;;;;;;;2.90;1.47;;;7.00;99.90;;;7.44;100.00;97168.28;5487982;26;20525;-73
2024/04/16 00:42:31;;;;;;;3.87;1.30;;;6.70;99.90;;;7.40;100.00;97180.84;5493115;26;20539;-73
2024/04/16 00:45:01;;;;;;;4.60;1.50;;;6.70;99.90;;;7.38;100.00;97197.66;5496318;25;21063;-73
2024/04/16 00:47:32;;;;;;;4.33;1.20;;;6.70;99.90;;;7.02;100.00;97192.50;5491359;26;20574;-73
2024/04/16 00:50:02;;;;;;;1.00;0.80;;;6.50;99.90;;;6.84;100.00;97194.72;5491663;26;20692;-73
2024/04/16 00:52:33;;;;;;;1.00;0.80;;;6.30;99.90;;;6.65;100.00;97192.75;5496549;25;20480;-73
2024/04/16 00:55:01;;;;;;;1.10;0.90;;;6.20;99.90;;;6.41;100.00;97199.88;5495319;26;20566;-73
2024/04/16 00:57:32;;;;;;;0.80;0.70;;;5.90;99.90;;;6.41;100.00;97194.69;5494492;26;20473;-74
2024/04/16 00:59:59;;;;;;;1.00;0.80;;;5.80;99.90;;;6.34;100.00;97196.38;5492693;26;20472;-73
2024/04/16 01:02:29;;;;;;;1.10;0.80;;;5.70;99.90;;;6.34;100.00;97180.81;5496172;26;20475;-73
2024/04/16 01:05:01;;;;;;;0.80;0.70;;;5.60;99.90;;;6.27;100.00;97177.31;5493800;26;20795;-73
2024/04/16 01:07:33;;;;;;;0.80;0.70;;;5.50;99.90;;;6.18;100.00;97172.44;5494754;26;20522;-73
2024/04/16 01:10:00;;;;;;;1.00;0.80;;;5.40;99.90;;;6.18;100.00;97165.41;5493398;26;20553;-73
2024/04/16 01:12:30;;;;;;;0.73;0.70;;;5.40;99.90;;;6.22;100.00;97168.47;5494913;26;20514;-73
2024/04/16 01:14:58;;;;;;;0.80;0.70;;;5.50;99.90;;;6.10;100.00;97165.53;5494793;26;20576;-73
2024/04/16 01:17:28;;;;;;;1.20;0.70;;;5.30;99.90;;;6.17;100.00;97158.63;5492147;26;20555;-73
2024/04/16 01:19:59;;;;;;;0.80;0.70;;;5.40;99.90;;;6.21;100.00;97166.88;5492650;26;20486;-73
2024/04/16 01:22:29;;;;;;;1.53;0.80;;;5.40;99.90;;;6.24;100.00;97167.31;5492344;26;20519;-74
2024/04/16 01:24:59;;;;;;;1.10;0.80;;;5.40;99.90;;;6.20;100.00;97160.88;5494944;26;20587;-72
2024/04/16 01:27:29;;;;;;;0.80;0.70;;;5.40;99.90;;;6.22;100.00;97153.69;5489966;26;21019;-73
2024/04/16 01:29:57;;;;;;;2.40;0.77;;;5.50;99.90;;;6.26;100.00;97160.13;5493077;26;20466;-72
2024/04/16 01:32:27;;;;;;;0.80;0.70;;;5.50;99.90;;;6.23;100.00;97144.13;5490194;26;20478;-73
2024/04/16 01:34:55;;;;;;;0.80;0.80;;;5.40;99.90;;;6.23;100.00;97144.94;5492576;26;20467;-73
2024/04/16 01:37:25;;;;;;;0.70;0.70;;;5.50;99.90;;;6.27;100.00;97153.97;5490029;26;20481;-73
2024/04/16 01:39:53;;;;;;;1.10;0.80;;;5.50;99.90;;;6.28;100.00;97157.38;5490427;26;20478;-73
2024/04/16 01:42:26;;;;;;;2.40;0.90;;;5.40;99.90;;;6.31;100.00;97151.81;5493290;26;20566;-73
2024/04/16 01:44:56;;;;;;;0.70;0.70;;;5.50;99.90;;;6.27;100.00;97137.59;5495348;26;20474;-73
2024/04/16 01:47:26;;;;;;;3.23;0.80;;;5.40;99.90;;;6.25;100.00;97126.59;5496880;26;20472;-73
2024/04/16 01:49:54;;;;;;;0.90;0.80;;;5.40;99.90;;;6.16;100.00;97117.28;5495559;26;20478;-73
2024/04/16 01:52:24;;;;;;;1.20;0.90;;;5.30;99.90;;;6.13;100.00;97117.66;5499274;26;20883;-73
2024/04/16 01:54:51;;;;;;;0.90;0.80;;;5.30;99.90;;;6.13;100.00;97118.47;5498341;26;20621;-73
2024/04/16 01:57:24;;;;;;;0.70;0.70;;;5.30;99.90;;;6.07;100.00;97114.78;5496394;26;20538;-73
2024/04/16 01:59:52;;;;;;;0.80;0.80;;;5.20;99.90;;;6.05;100.00;97113.38;5491612;26;20467;-73
2024/04/16 02:02:22;;;;;;;1.33;0.90;;;5.20;99.90;;;5.92;100.00;97108.03;5497439;26;20466;-72
2024/04/16 02:04:49;;;;;;;1.00;0.90;;;5.00;99.90;;;5.82;100.00;97104.88;5494083;26;20575;-73
2024/04/16 02:07:20;;;;;;;0.93;0.80;;;4.90;99.90;;;5.73;100.00;97108.53;5498538;26;20558;-72
2024/04/16 02:09:47;;;;;;;0.93;0.83;;;4.70;99.90;;;5.64;100.00;97107.00;5493965;26;20515;-73
2024/04/16 02:12:17;;;;;;;1.00;0.80;;;4.70;99.90;;;5.48;100.00;97103.59;5494433;26;20594;-73
2024/04/16 02:14:49;;;;;;;1.77;0.70;;;4.50;99.90;;;5.56;100.00;97095.75;5500283;26;21288;-72
2024/04/16 02:17:20;;;;;;;1.03;0.80;;;4.50;99.90;;;5.59;100.00;97095.38;5497277;26;21058;-73
2024/04/16 02:19:48;;;;;;;1.00;0.90;;;4.60;99.90;;;5.63;100.00;97100.22;5495855;26;20529;-73
2024/04/16 02:22:18;;;;;;;2.93;0.90;;;4.70;99.90;;;5.68;100.00;97097.91;5495482;26;21062;-73
2024/04/16 02:24:46;;;;;;;2.90;0.90;;;4.70;99.90;;;5.68;100.00;97093.53;5496953;26;20485;-72
2024/04/16 02:27:16;;;;;;;2.90;0.83;;;4.70;99.90;;;5.73;100.00;97087.78;5496800;26;21016;-73
2024/04/16 02:29:43;;;;;;;2.60;0.97;;;4.80;99.90;;;5.77;100.00;97076.06;5496886;25;20581;-73
2024/04/16 02:32:16;;;;;;;0.97;0.90;;;4.90;99.90;;;5.79;100.00;97068.91;5492823;26;20469;-73
2024/04/16 02:34:44;;;;;;;2.50;0.90;;;4.90;99.90;;;5.78;100.00;97067.31;5497698;26;21030;-73
2024/04/16 02:37:14;;;;;;;2.03;1.10;;;4.80;99.90;;;5.84;100.00;97072.56;5488588;26;20615;-73
2024/04/16 02:39:42;;;;;;;9.07;1.30;;;5.00;99.90;;;5.88;100.00;97078.22;5487469;25;20544;-73
2024/04/16 02:42:12;;;;;;;5.10;1.40;;;5.10;99.90;;;5.85;100.00;97076.78;5490796;25;20581;-73
2024/04/16 02:44:40;;;;;;;3.83;1.27;;;5.10;99.90;;;5.90;100.00;97076.28;5492899;26;21121;-74
2024/04/16 02:47:10;;;;;;;4.47;1.50;;;5.10;99.90;;;5.88;100.00;97073.03;5492758;26;20581;-73
2024/04/16 02:49:40;;;;;;;2.67;1.77;;;5.10;99.90;;;5.91;100.00;97075.28;5491878;26;21191;-73
2024/04/16 02:52:10;;;;;;;4.10;1.47;;;5.20;99.90;;;5.99;100.00;97075.97;5491561;26;20465;-73
2024/04/16 02:54:38;;;;;;;2.67;1.40;;;5.30;99.90;;;6.07;100.00;97059.50;5492012;26;20525;-73
2024/04/16 02:57:08;;;;;;;7.63;1.60;;;5.40;99.90;;;6.06;100.00;97063.88;5487276;25;20486;-73
2024/04/16 02:59:36;;;;;;;3.10;1.63;;;5.40;99.90;;;6.10;100.00;97053.94;5492425;26;20487;-73
2024/04/16 03:02:06;;;;;;;4.27;1.57;;;5.50;99.90;;;6.12;100.00;97057.16;5488409;26;20518;-73
2024/04/16 03:04:34;;;;;;;12.90;1.90;;;5.50;99.90;;;6.13;100.00;97056.16;5489696;26;20815;-73
2024/04/16 03:07:07;;;;;;;4.10;1.60;;;5.50;99.90;;;6.18;100.00;97058.22;5488209;26;20461;-73
2024/04/16 03:09:34;;;;;;;13.33;2.60;;;5.50;99.90;;;6.18;100.00;97053.03;5484844;25;20473;-76
2024/04/16 03:12:05;;;;;;;6.73;1.97;;;5.50;99.90;;;6.19;100.00;97049.44;5477557;25;20478;-73
2024/04/16 03:14:32;;;;;;;4.83;1.57;;;5.50;99.90;;;6.15;100.00;97051.59;5487415;25;20583;-74
2024/04/16 03:17:02;;;;;;;8.00;1.87;;;5.40;99.90;;;6.15;100.00;97046.41;5481409;26;21370;-74
2024/04/16 03:19:30;;;;;;;5.63;1.57;;;5.50;99.90;;;6.13;100.00;97038.00;5481162;26;20808;-74
2024/04/16 03:22:00;;;;;;;2.33;1.10;;;5.50;99.90;;;6.05;100.00;97038.13;5481705;26;20583;-74
2024/04/16 03:24:31;;;;;;;6.67;1.70;;;5.40;99.90;;;6.10;100.00;97040.97;5482171;25;20534;-74
2024/04/16 03:27:01;;;;;;;9.73;2.10;;;5.50;99.90;;;6.13;100.00;97042.38;5484601;26;20486;-75
2024/04/16 03:29:28;;;;;;;8.37;1.63;;;5.40;99.90;;;6.11;100.00;97047.75;5482469;25;20534;-76
2024/04/16 03:31:59;;;;;;;3.37;1.60;;;5.50;99.90;;;6.13;100.00;97065.75;5484188;26;20870;-75
2024/04/16 03:34:26;;;;;;;16.53;1.90;;;5.40;99.90;;;6.15;100.00;97059.38;5489490;26;20835;-75
2024/04/16 03:36:58;;;;;;;5.70;1.83;;;5.50;99.90;;;6.19;100.00;97049.44;5490968;25;20506;-75
2024/04/16 03:39:28;;;;;;;5.40;1.90;;;5.50;99.90;;;6.20;100.00;97048.44;5489997;26;21078;-81
2024/04/16 03:42:01;;;;;;;4.57;1.53;;;5.40;99.90;;;6.17;100.00;97044.44;5490761;26;20470;-76
2024/04/16 03:44:31;;;;;;;4.20;1.50;;;5.50;99.90;;;6.11;100.00;97042.56;5485182;25;20482;-76
2024/04/16 03:46:59;;;;;;;5.97;1.73;;;5.50;99.90;;;6.16;100.00;97040.22;5490424;26;20573;-75
2024/04/16 03:49:29;;;;;;;4.17;1.77;;;5.50;99.90;;;6.19;100.00;97039.06;5489937;26;20556;-75
2024/04/16 03:51:57;;;;;;;13.37;2.03;;;5.50;99.90;;;6.13;100.00;97039.78;5487869;26;20534;-75
2024/04/16 03:54:27;;;;;;;5.67;1.40;;;5.50;99.90;;;6.15;100.00;97036.03;5491197;26;20478;-75
2024/04/16 03:56:54;;;;;;;10.67;2.03;;;5.50;99.90;;;6.13;100.00;97045.78;5486312;26;20525;-75
2024/04/16 04:01:00;;;;;;;5.37;1.73;;;5.50;99.90;;;6.18;100.00;97053.81;5483968;25;21085;-75
2024/04/16 04:02:27;;;;;;;5.60;1.37;;;5.50;99.90;;;6.15;100.00;97048.19;5486047;26;21116;-75
2024/04/16 04:04:57;;;;;;;3.03;1.40;;;5.50;99.90;;;6.15;100.00;97043.81;5486699;26;20472;-75
2024/04/16 04:07:25;;;;;;;4.17;1.37;;;5.50;99.90;;;6.17;100.00;97052.22;5487923;26;20483;-75
2024/04/16 04:09:55;;;;;;;3.90;1.63;;;5.50;99.90;;;6.17;100.00;97046.22;5487712;26;20490;-75
2024/04/16 04:12:23;;;;;;;4.60;1.43;;;5.50;99.90;;;6.16;100.00;97045.41;5492461;26;20618;-75
2024/04/16 04:14:55;;;;;;;6.60;1.27;;;5.50;99.90;;;6.12;100.00;97054.56;5490500;26;20495;-75
2024/04/16 04:17:23;;;;;;;7.23;2.40;;;5.50;99.90;;;6.11;100.00;97052.16;5495489;25;20474;-75
2024/04/16 04:19:53;;;;;;;3.17;1.53;;;5.40;99.90;;;6.14;100.00;97041.41;5492906;26;20530;-76
2024/04/16 04:22:21;;;;;;;31.10;9.43;;;5.50;99.90;;;6.18;100.00;97059.00;5487574;26;20484;-73
2024/04/16 04:24:51;;;;;;;4.10;1.87;;;5.50;99.90;;;6.23;100.00;97056.69;5487972;26;20470;-75
2024/04/16 04:27:21;;;;;;;7.67;2.20;;;5.60;99.90;;;6.21;100.00;97052.66;5488921;26;20491;-75
2024/04/16 04:29:49;;;;;;;1.93;1.57;;;5.60;99.90;;;6.20;100.00;97044.06;5487411;26;20758;-79
2024/04/16 04:32:21;;;;;;;8.80;2.10;;;5.60;99.90;;;6.18;100.00;97033.06;5488296;26;20583;-75
2024/04/16 04:34:49;;;;;;;4.60;1.63;;;5.60;99.90;;;6.18;100.00;97027.88;5491123;25;20484;-76
2024/04/16 04:37:19;;;;;;;3.43;1.77;;;5.60;99.90;;;6.18;100.00;97033.06;5489998;26;20480;-75
2024/04/16 04:39:47;;;;;;;6.07;1.70;;;5.60;99.90;;;6.21;100.00;97031.91;5494208;26;20463;-76
2024/04/16 04:42:17;;;;;;;7.73;1.77;;;5.60;99.90;;;6.20;100.00;97033.69;5494216;26;20527;-76
2024/04/16 04:44:45;;;;;;;9.17;1.63;;;5.60;99.90;;;6.27;100.00;97031.16;5492210;25;20467;-76
2024/04/16 04:47:15;;;;;;;12.47;1.97;;;5.60;99.90;;;6.29;100.00;97035.16;5495384;26;20466;-76
2024/04/16 04:49:45;;;;;;;5.47;1.53;;;5.60;99.90;;;6.19;100.00;97034.66;5494585;26;20473;-77
2024/04/16 04:52:16;;;;;;;5.03;1.80;;;5.50;99.90;;;6.25;100.00;97035.75;5495553;26;21090;-76
2024/04/16 04:54:43;;;;;;;8.57;2.60;;;5.60;99.90;;;6.22;100.00;97031.69;5498926;26;20755;-76
2024/04/16 04:57:13;;;;;;;4.60;1.40;;;5.40;99.90;;;6.19;100.00;97034.66;5496079;26;20478;-76
2024/04/16 04:59:41;;;;;;;4.67;1.53;;;5.60;99.90;;;6.22;100.00;97036.09;5492516;26;20595;-76
2024/04/16 05:02:11;;;;;;;13.33;1.97;;;5.60;99.90;;;6.22;100.00;97041.28;5496709;26;20583;-76
2024/04/16 05:04:39;;;;;;;11.10;1.60;;;5.60;99.90;;;6.31;100.00;97041.00;5493316;26;20513;-76
2024/04/16 05:07:12;;;;;;;10.77;1.53;;;5.70;99.90;;;6.33;100.00;97033.81;5495242;26;20482;-77
2024/04/16 05:09:40;;;;;;;5.10;1.40;;;5.60;99.90;;;6.35;100.00;97034.41;5495213;26;20582;-77
2024/04/16 05:12:10;;;;;;;4.13;1.90;;;5.70;99.90;;;6.34;100.00;97035.44;5495743;26;20476;-76
2024/04/16 05:14:42;;;;;;;7.03;1.73;;;5.60;99.90;;;6.35;100.00;97036.25;5495613;25;20483;-77
2024/04/16 05:17:13;;;;;;;4.23;1.47;;;5.70;99.90;;;6.40;100.00;97033.88;5500293;25;21104;-76
2024/04/16 05:19:41;;;;;;;11.57;1.90;;;5.70;99.90;;;6.32;100.00;97042.56;5498568;26;20481;-76
2024/04/16 05:22:14;;;;;;;6.70;1.70;;;5.70;99.90;;;6.31;100.00;97030.63;5496598;25;20525;-76
2024/04/16 05:24:44;;;;;;;5.70;1.50;;;5.60;99.90;;;6.25;100.00;97035.75;5498433;25;21309;-76
2024/04/16 05:27:12;;;;;;;8.37;1.73;;;5.70;99.90;;;6.22;100.00;97042.09;5498503;26;20562;-76
2024/04/16 05:29:42;;;;;;;4.50;1.40;;;5.50;99.90;;;6.25;100.00;97044.31;5498524;26;20515;-77
2024/04/16 05:32:12;;;;;;;3.03;1.37;;;5.50;99.90;;;6.25;100.00;97039.13;5495327;26;20599;-77
2024/04/16 05:34:44;;;;;;;3.17;1.57;;;5.60;99.90;;;6.18;100.00;97038.25;5499990;26;20476;-77
2024/04/16 05:37:15;;;;;;;6.10;1.40;;;5.60;99.90;;;6.16;100.00;97048.00;5497975;26;20996;-76
2024/04/16 05:39:45;;;;;;;4.97;2.37;;;5.50;99.90;;;6.19;100.00;97045.06;5497533;26;20478;-77
2024/04/16 05:42:12;;;;;;;3.00;1.60;;;5.50;99.90;;;6.23;100.00;97041.09;5500555;26;20493;-77
2024/04/16 05:44:43;;;;;;;5.23;1.10;;;5.60;99.90;;;6.25;100.00;97038.34;5500269;26;20589;-76
2024/04/16 05:47:10;;;;;;;5.27;1.70;;;5.60;99.90;;;6.33;100.00;97048.59;5494953;26;20471;-77
2024/04/16 05:49:40;;;;;;;4.37;1.70;;;5.60;99.90;;;6.39;100.00;97048.63;5498814;26;20480;-77
2024/04/16 05:52:08;;;;;;;6.40;1.50;;;5.70;99.90;;;6.43;100.00;97043.88;5496215;26;20474;-76
2024/04/16 05:54:41;;;;;;;5.00;1.33;;;5.70;99.90;;;6.39;100.00;97038.25;5498657;26;20475;-76
2024/04/16 05:57:09;;;;;;;6.73;1.20;;;5.70;99.90;;;6.36;100.00;97028.25;5501340;26;20597;-76
2024/04/16 05:59:39;;;;;;;1.73;1.20;;;5.70;99.90;;;6.39;100.00;97019.28;5501823;26;20591;-76
2024/04/16 06:02:06;;;;;;;3.07;1.47;;;5.70;99.90;;;6.39;100.00;97011.50;5501545;26;20619;-76
2024/04/16 06:04:37;;;;;;;2.00;1.00;;;5.70;99.90;;;6.35;100.00;97012.88;5496139;26;20813;-76
2024/04/16 06:07:04;;;;;;;1.77;1.00;;;5.50;99.90;;;6.33;100.00;97020.03;5498334;26;20514;-76
2024/04/16 06:09:35;;;;;;;3.87;1.23;;;5.50;99.90;;;6.39;100.00;97014.88;5500175;26;20466;-76
2024/04/16 06:12:07;;;;;;;2.20;1.20;;;5.70;99.90;;;6.39;100.00;97012.28;5501312;26;20566;-76
2024/04/16 06:14:37;;;;;;;3.73;1.27;;;5.70;99.90;;;6.46;100.00;97020.13;5499692;26;20464;-76
2024/04/16 06:17:05;;;;;;;2.17;1.33;;;5.80;99.90;;;6.48;100.00;97016.38;5498104;26;20546;-76
2024/04/16 06:19:35;;;;;;;1.83;1.00;;;5.80;99.90;;;6.50;100.00;97018.78;5498573;26;20580;-76
2024/04/16 06:22:03;;;;;;;4.60;1.30;;;5.70;99.90;;;6.53;100.00;97018.41;5494850;26;21022;-76
2024/04/16 06:24:33;;;;;;;1.43;1.10;;;5.80;99.90;;;6.48;100.00;97023.38;5494368;26;20972;-76
2024/04/16 06:27:01;;;;;;;1.27;0.97;;;5.90;99.90;;;6.49;100.00;97020.56;5493885;25;20492;-76
2024/04/16 06:29:34;;;;;;;3.83;1.30;;;5.80;99.90;;;6.57;100.00;97011.84;5496739;26;20492;-76
2024/04/16 06:32:01;;;;;;;4.20;1.07;;;5.90;99.90;;;6.60;100.00;97011.47;5497590;26;21120;-76
2024/04/16 06:34:31;;;;;;;2.23;1.30;;;5.90;99.90;;;6.59;100.00;97009.88;5497518;26;21311;-76
2024/04/16 06:36:59;;;;;;;1.50;1.13;;;5.80;99.90;;;6.56;100.00;97003.25;5501522;26;21073;-76
2024/04/16 06:39:29;;;;;;;1.53;0.97;;;5.80;99.90;;;6.59;100.00;96991.72;5500270;26;20544;-76
2024/04/16 06:42:00;;;;;;;1.90;1.53;;;5.80;99.90;;;6.66;100.00;96994.34;5499975;25;20542;-76
2024/04/16 06:44:33;;;;;;;2.30;1.17;;;5.90;99.90;;;6.79;100.00;96984.06;5499823;26;20535;-76
2024/04/16 06:47:01;;;;;;;5.20;1.30;;;6.10;99.90;;;6.85;100.00;96978.91;5497410;26;20538;-76
2024/04/16 06:49:32;;;;;;;3.23;2.20;;;6.10;99.90;;;6.86;100.00;96979.72;5497713;25;20474;-76
2024/04/16 06:51:59;;;;;;;1.87;1.27;;;6.20;99.90;;;6.90;100.00;96986.94;5498590;26;20522;-77
2024/04/16 06:54:29;;;;;;;4.70;1.80;;;6.20;99.90;;;6.89;100.00;96984.53;5498182;25;20595;-77
2024/04/16 06:56:57;;;;;;;4.03;1.47;;;6.30;99.90;;;6.86;100.00;96969.31;5497285;26;20491;-76
2024/04/16 06:59:27;;;;;;;4.13;1.40;;;6.30;99.90;;;6.96;100.00;96977.56;5497398;26;20490;-77
2024/04/16 07:01:58;;;;;;;7.67;1.70;;;6.30;99.90;;;6.98;100.00;96993.75;5496490;26;20468;-76
2024/04/16 07:04:28;;;;;;;3.57;1.67;;;6.40;99.90;;;7.03;100.00;96984.41;5500922;26;20481;-76
2024/04/16 07:06:56;;;;;;;3.57;1.33;;;6.40;99.90;;;7.08;100.00;96978.63;5495589;26;20814;-76
2024/04/16 07:09:30;;;;;;;7.40;1.33;;;6.40;99.90;;;7.13;100.00;96981.47;5497226;26;20522;-77
2024/04/16 07:11:58;;;;;;;3.37;1.50;;;6.50;99.90;;;7.09;100.00;96977.63;5495735;25;20488;-76
2024/04/16 07:14:28;;;;;;;2.70;1.20;;;6.40;99.90;;;7.19;100.00;96979.88;5499172;26;20569;-76
2024/04/16 07:16:59;;;;;;;2.20;1.20;;;6.50;99.90;;;7.22;100.00;96972.50;5496104;25;20615;-76
2024/04/16 07:19:29;;;;;;;1.53;0.97;;;6.60;99.90;;;7.19;100.00;96974.69;5495349;26;20584;-76
2024/04/16 07:21:57;;;;;;;3.87;1.50;;;6.50;99.90;;;7.20;100.00;96968.50;5497428;26;20539;-76
2024/04/16 07:24:27;;;;;;;1.20;1.10;;;6.60;99.90;;;7.26;100.00;96971.13;5498786;26;21338;-76
2024/04/16 07:26:55;;;;;;;2.00;1.20;;;6.60;99.90;;;7.32;100.00;96986.00;5499551;26;20481;-76
2024/04/16 07:29:25;;;;;;;3.43;0.97;;;6.70;99.90;;;7.29;100.00;96964.78;5497103;25;20493;-76
2024/04/16 07:31:52;;;;;;;3.60;1.10;;;6.70;99.90;;;7.37;100.00;96973.19;5498707;25;20598;-76
2024/04/16 07:34:25;;;;;;;1.53;0.90;;;6.70;99.90;;;7.43;100.00;96969.81;5496097;26;20477;-76
2024/04/16 07:36:53;;;;;;;3.07;1.17;;;6.80;99.90;;;7.38;100.00;96964.41;5497918;26;20476;-76
2024/04/16 07:39:23;;;;;;;2.70;1.03;;;6.70;99.90;;;7.33;100.00;96964.16;5497797;26;20527;-77
2024/04/16 07:41:51;;;;;;;1.33;0.90;;;6.70;99.90;;;7.33;100.00;96955.56;5498972;26;20580;-76
2024/04/16 07:44:22;;;;;;;2.80;1.13;;;6.70;99.90;;;7.37;100.00;96948.97;5497185;26;20587;-76
2024/04/16 07:46:50;;;;;;;1.20;0.83;;;6.80;99.90;;;7.34;100.00;96937.19;5494794;25;20508;-76
2024/04/16 07:49:20;;;;;;;1.47;0.83;;;6.70;99.90;;;7.32;100.00;96939.19;5499088;26;20486;-77
2024/04/16 07:51:50;;;;;;;1.47;0.90;;;6.60;99.90;;;7.27;100.00;96936.34;5494000;26;20478;-76
2024/04/16 07:54:21;;;;;;;1.03;0.93;;;6.60;99.90;;;7.27;100.00;96938.16;5495956;26;21192;-76
2024/04/16 07:56:50;;;;;;;1.20;0.83;;;6.50;99.90;;;7.31;100.00;96941.97;5493442;26;20481;-76
2024/04/16 07:59:20;;;;;;;1.23;0.87;;;6.50;99.90;;;7.26;100.00;96934.72;5496691;25;20488;-76
2024/04/16 08:01:48;;;;;;;0.90;0.80;;;6.50;99.90;;;7.31;100.00;96932.38;5495334;26;21148;-76
2024/04/16 08:04:18;;;;;;;3.93;1.10;;;6.70;99.90;;;7.32;100.00;96928.78;5496943;25;20522;-76
2024/04/16 08:06:45;;;;;;;1.87;1.00;;;6.60;99.90;;;7.33;100.00;96929.56;5499188;26;20489;-76
2024/04/16 08:09:19;;;;;;;4.50;0.90;;;6.70;99.90;;;7.34;100.00;96937.19;5497088;26;21072;-76
2024/04/16 08:11:46;;;;;;;5.07;1.13;;;6.70;99.90;;;7.37;100.00;96942.00;5502177;26;20909;-76
2024/04/16 08:14:18;;;;;;;4.13;1.37;;;6.70;99.90;;;7.36;100.00;96939.56;5494512;26;20498;-76
2024/04/16 08:16:46;;;;;;;1.07;0.90;;;6.70;99.90;;;7.24;100.00;96926.34;5496789;26;21540;-76
2024/04/16 08:19:18;;;;;;;1.43;0.83;;;6.60;99.90;;;7.26;100.00;96913.13;5494637;26;20889;-76
2024/04/16 08:21:46;;;;;;;1.20;0.80;;;6.50;99.90;;;7.29;100.00;96925.78;5497404;25;20550;-76
2024/04/16 08:24:19;;;;;;;3.00;1.13;;;6.60;99.90;;;7.28;100.00;96922.38;5499737;25;20484;-76
2024/04/16 08:26:47;;;;;;;1.20;0.83;;;6.60;99.90;;;7.30;100.00;96930.75;5494265;26;20488;-76
2024/04/16 08:29:18;;;;;;;2.87;1.03;;;6.70;99.90;;;7.29;100.00;96929.16;5494715;26;20489;-76
2024/04/16 08:31:46;;;;;;;0.83;0.83;;;6.60;99.90;;;7.31;100.00;96931.56;5496050;26;21186;-76
2024/04/16 08:34:16;;;;;;;1.00;0.90;;;6.50;99.90;;;7.35;100.00;96932.78;5495385;26;20477;-76
2024/04/16 08:36:43;;;;;;;3.20;1.00;;;6.70;99.90;;;7.37;100.00;96936.78;5494347;26;20546;-76
2024/04/16 08:39:14;;;;;;;2.90;0.87;;;6.80;99.90;;;7.37;100.00;96936.78;5494635;26;20549;-76
2024/04/16 08:41:44;;;;;;;2.43;0.90;;;6.80;99.90;;;7.29;100.00;96939.53;5498551;26;20566;-76
2024/04/16 08:44:17;;;;;;;2.83;0.97;;;6.80;99.90;;;7.20;100.00;96942.50;5493881;26;20533;-76
2024/04/16 08:46:46;;;;;;;0.80;0.80;;;6.50;99.90;;;7.25;100.00;96937.53;5497921;26;20463;-76
2024/04/16 08:49:23;;;;;;;1.53;0.90;;;6.60;99.90;;;7.30;100.00;96930.75;5496061;26;20474;-77
2024/04/16 08:51:53;;;;;;;2.67;1.17;;;6.50;99.90;;;7.40;100.00;96931.19;5491517;26;20464;-76
2024/04/16 08:54:26;;;;;;;2.50;1.00;;;6.70;99.90;;;7.43;100.00;96930.00;5494604;26;21112;-77
2024/04/16 08:56:56;;;;;;;1.90;0.80;;;6.70;99.90;;;7.47;100.00;96936.41;5498244;26;21126;-76
2024/04/16 08:59:26;;;;;;;1.87;0.93;;;6.70;99.90;;;7.40;100.00;96923.41;5493409;26;20937;-76
2024/04/16 09:01:59;;;;;;;1.23;0.77;;;6.70;99.90;;;7.46;100.00;96933.00;5498639;26;20610;-77
2024/04/16 09:04:32;;;;;;;1.10;1.00;;;6.80;99.90;;;7.56;100.00;96923.06;5496034;26;20477;-76
2024/04/16 09:07:02;;;;;;;1.47;0.90;;;6.90;99.90;;;7.66;100.00;96940.09;5497186;26;20579;-77
2024/04/16 09:09:32;;;;;;;0.90;0.80;;;7.00;99.90;;;7.63;100.00;96937.88;5494605;26;20559;-76
2024/04/16 09:12:04;;;;;;;1.37;1.03;;;6.90;99.90;;;7.64;100.00;96939.47;5496194;26;20580;-76
2024/04/16 09:14:34;;;;;;;1.13;0.90;;;7.00;99.90;;;7.55;100.00;96944.06;5498124;26;20493;-76
2024/04/16 09:17:02;;;;;;;0.77;0.77;;;7.00;99.90;;;7.60;100.00;96946.88;5494168;26;20469;-76
2024/04/16 09:19:34;;;;;;;1.83;0.80;;;7.00;99.90;;;7.67;100.00;96954.72;5498188;26;20881;-77
2024/04/16 09:22:01;;;;;;;2.70;1.30;;;7.00;99.90;;;7.73;100.00;96951.31;5493435;26;20508;-76
2024/04/16 09:24:31;;;;;;;1.40;1.00;;;7.10;99.90;;;7.78;100.00;96946.31;5496268;26;20588;-76
2024/04/16 09:27:07;;;;;;;3.13;0.80;;;7.20;99.90;;;7.78;100.00;96956.72;5493422;26;20863;-76
2024/04/16 09:29:38;;;;;;;2.70;0.90;;;7.20;99.90;;;7.86;100.00;96953.94;5491722;26;20558;-76
2024/04/16 09:32:06;;;;;;;3.47;1.60;;;7.30;99.90;;;7.82;100.00;96939.72;5492192;26;21037;-76
2024/04/16 09:34:36;;;;;;;1.47;0.80;;;7.20;99.90;;;7.85;100.00;96949.75;5494526;26;21184;-76
2024/04/16 09:37:04;;;;;;;1.00;0.80;;;7.30;99.90;;;7.88;100.00;96944.94;5494194;26;20541;-76
2024/04/16 09:39:34;;;;;;;1.20;0.90;;;7.30;99.90;;;7.88;100.00;96950.16;5495971;26;20517;-76
2024/04/16 09:42:06;;;;;;;1.03;0.80;;;7.30;99.90;;;7.90;100.00;96931.75;5494455;25;20480;-76
2024/04/16 09:44:39;;;;;;;1.10;1.00;;;7.30;99.90;;;8.00;100.00;96939.97;5493965;26;20484;-76
2024/04/16 09:47:08;;;;;;;2.10;1.00;;;7.40;99.90;;;8.08;100.00;96951.00;5492630;25;20588;-76
2024/04/16 09:49:39;;;;;;;1.00;0.80;;;7.50;99.90;;;8.15;100.00;96943.19;5493295;26;20485;-76
2024/04/16 09:52:25;;;;;;;1.00;0.90;;;7.50;99.90;;;8.28;100.00;96940.63;5494991;25;20529;-77
2024/04/16 09:55:01;;;;;;;0.83;0.77;;;7.60;99.90;;;8.39;100.00;96942.66;5494697;26;21021;-76
2024/04/16 09:57:33;;;;;;;1.50;0.93;;;7.60;99.90;;;8.44;100.00;96927.19;5496387;26;20804;-77
2024/04/16 10:00:04;;;;;;;0.97;0.80;;;7.80;99.90;;;8.44;100.00;96940.22;5491521;25;20480;-76
2024/04/16 10:02:36;;;;;;;2.40;1.00;;;7.80;99.90;;;8.45;100.00;96926.22;5494577;26;20468;-76
2024/04/16 10:05:07;;;;;;;1.90;1.10;;;7.80;99.90;;;8.53;100.00;96943.44;5500742;26;20543;-76
2024/04/16 10:07:35;;;;;;;2.53;1.27;;;7.90;99.90;;;8.39;100.00;96942.66;5502497;26;20584;-76
2024/04/16 10:10:07;;;;;;;2.00;1.10;;;7.80;99.90;;;8.47;100.00;96946.84;5499459;25;21024;-76
2024/04/16 10:12:38;;;;;;;1.30;0.90;;;7.80;99.90;;;8.64;100.00;96952.47;5497612;26;20594;-76
2024/04/16 10:15:10;;;;;;;4.33;1.10;;;8.00;99.90;;;8.76;100.00;96932.59;5504792;25;20474;-77
2024/04/16 10:17:57;;;;;;;3.70;1.07;;;8.10;99.90;;;8.83;100.00;96943.81;5500575;26;20545;-76
2024/04/16 10:20:31;;;;;;;5.17;1.13;;;8.20;99.90;;;8.82;100.00;96937.78;5499705;25;20528;-76
2024/04/16 10:23:00;;;;;;;1.30;0.97;;;8.20;99.90;;;8.90;100.00;96949.81;5502114;26;20486;-76
2024/04/16 10:25:33;;;;;;;1.20;0.80;;;8.20;99.90;;;8.87;100.00;96955.44;5498779;26;21216;-77
2024/04/16 10:28:05;;;;;;;1.37;0.90;;;8.20;99.90;;;8.93;100.00;96965.84;5497701;26;20491;-77
2024/04/16 10:30:38;;;;;;;1.10;0.80;;;8.30;99.90;;;8.94;100.00;96946.59;5497326;26;20473;-77
2024/04/16 10:33:11;;;;;;;2.40;0.90;;;8.40;99.90;;;8.97;100.00;96961.03;5501077;25;20873;-76
2024/04/16 10:35:41;;;;;;;1.53;1.00;;;8.40;99.90;;;9.00;100.00;96958.81;5498610;25;21054;-77